Time;durP1;ratioP1;P1;durP2;ratioP2;P2;SDS_P1;SDS_P2;PMS_P1;PMS_P2;Temp;Humidity;BMP_temperature;BMP_pressure;BME280_temperature;BME280_humidity;BME280_pressure;Samples;Min_cycle;Max_cycle;Signal;HPM_P1;HPM_P2
2021/01/04 00:02:21;;;;;;;7.13;4.33;;;4.30;99.90;;;;;;5053985;28;20205;-76
2021/01/04 00:05:03;;;;;;;6.23;4.00;;;4.40;99.90;;;;;;5017066;28;20205;-76
2021/01/04 00:07:35;;;;;;;5.20;3.43;;;4.30;99.90;;;;;;5032171;28;20881;-75
2021/01/04 00:10:28;;;;;;;5.23;3.50;;;4.40;99.90;;;;;;5035321;28;20319;-75
2021/01/04 00:12:56;;;;;;;6.43;4.00;;;4.40;99.90;;;;;;5024506;28;20215;-75
2021/01/04 00:15:38;;;;;;;5.50;4.20;;;4.30;99.90;;;;;;5018627;28;20225;-75
2021/01/04 00:18:42;;;;;;;6.40;4.30;;;4.40;99.90;;;;;;5024487;28;20204;-75
2021/01/04 00:21:31;;;;;;;8.33;4.40;;;4.40;99.90;;;;;;5037517;28;20625;-75
2021/01/04 00:24:24;;;;;;;8.43;3.77;;;4.30;99.90;;;;;;5022530;28;20263;-77
2021/01/04 00:27:07;;;;;;;5.93;4.20;;;4.40;99.90;;;;;;5020551;28;20516;-76
2021/01/04 00:29:34;;;;;;;7.37;3.93;;;4.50;99.90;;;;;;5017800;28;20628;-75
2021/01/04 00:32:06;;;;;;;7.73;4.70;;;4.40;99.90;;;;;;5015312;28;20328;-76
2021/01/04 00:34:52;;;;;;;6.37;3.73;;;4.40;99.90;;;;;;5049044;28;20197;-75
2021/01/04 00:38:07;;;;;;;7.53;4.30;;;4.20;99.90;;;;;;5035468;28;20221;-75
2021/01/04 00:40:41;;;;;;;7.50;4.63;;;4.40;99.90;;;;;;5010724;28;20395;-76
2021/01/04 00:43:19;;;;;;;6.90;4.00;;;4.60;99.90;;;;;;5023555;28;20602;-76
2021/01/04 00:45:47;;;;;;;6.90;4.60;;;4.40;99.90;;;;;;5022296;28;20204;-76
2021/01/04 00:48:38;;;;;;;5.90;4.20;;;4.20;99.90;;;;;;5023879;28;20596;-75
2021/01/04 00:51:36;;;;;;;7.97;4.20;;;4.20;99.90;;;;;;5016686;28;20225;-75
2021/01/04 00:54:29;;;;;;;7.03;4.70;;;4.10;99.90;;;;;;5016444;28;20638;-76
2021/01/04 00:57:31;;;;;;;7.03;4.57;;;4.10;99.90;;;;;;5028378;28;20545;-77
2021/01/04 01:00:19;;;;;;;6.43;4.23;;;4.30;99.90;;;;;;5023741;28;20278;-76
2021/01/04 01:03:16;;;;;;;6.13;4.43;;;4.40;99.90;;;;;;5026545;28;21684;-76
2021/01/04 01:06:18;;;;;;;8.30;4.83;;;4.40;99.90;;;;;;5021093;28;20645;-75
2021/01/04 01:08:45;;;;;;;5.70;4.90;;;4.30;99.90;;;;;;5019890;28;20234;-75
2021/01/04 01:11:17;;;;;;;5.60;3.70;;;4.20;99.90;;;;;;5010310;28;20270;-75
2021/01/04 01:13:55;;;;;;;7.43;5.03;;;4.10;99.90;;;;;;5031105;28;20212;-75
2021/01/04 01:16:40;;;;;;;8.40;5.07;;;4.10;99.90;;;;;;5021507;28;20272;-75
2021/01/04 01:19:27;;;;;;;9.50;5.23;;;4.10;99.90;;;;;;5023704;28;20304;-75
2021/01/04 01:21:54;;;;;;;8.60;4.63;;;4.10;99.90;;;;;;5027302;28;20201;-76
2021/01/04 01:24:20;;;;;;;8.50;5.33;;;4.20;99.90;;;;;;5015794;28;20705;-76
2021/01/04 01:27:02;;;;;;;7.13;4.70;;;4.30;99.90;;;;;;5035594;28;20256;-75
2021/01/04 01:29:34;;;;;;;7.47;4.30;;;4.40;99.90;;;;;;5025537;28;20278;-76
2021/01/04 01:32:23;;;;;;;6.60;4.87;;;4.40;99.90;;;;;;5017706;28;20232;-76
2021/01/04 01:35:21;;;;;;;7.03;5.13;;;4.40;99.90;;;;;;5019715;28;20211;-75
2021/01/04 01:38:06;;;;;;;6.97;4.87;;;4.20;99.90;;;;;;5018116;28;20343;-77
2021/01/04 01:41:05;;;;;;;7.07;4.93;;;4.10;99.90;;;;;;5020301;28;20220;-76
2021/01/04 01:43:53;;;;;;;8.50;4.80;;;4.10;99.90;;;;;;5017549;28;20300;-75
2021/01/04 01:46:35;;;;;;;8.57;5.13;;;4.40;99.90;;;;;;5017508;28;20194;-76
2021/01/04 01:49:18;;;;;;;8.77;5.10;;;4.30;99.90;;;;;;5017587;28;20237;-76
2021/01/04 01:52:20;;;;;;;8.53;5.87;;;4.30;99.90;;;;;;5019780;28;20550;-75
2021/01/04 01:55:22;;;;;;;8.47;4.90;;;4.30;99.90;;;;;;5017595;28;20760;-75
2021/01/04 01:58:09;;;;;;;7.23;4.93;;;4.30;99.90;;;;;;5023977;28;20193;-75
2021/01/04 02:01:00;;;;;;;10.73;5.07;;;4.30;99.90;;;;;;5022810;28;20217;-75
2021/01/04 02:03:31;;;;;;;8.90;5.40;;;4.40;99.90;;;;;;5036534;28;20193;-76
2021/01/04 02:06:13;;;;;;;9.00;5.07;;;4.40;99.90;;;;;;5022352;28;20214;-75
2021/01/04 02:08:43;;;;;;;8.97;5.00;;;4.50;99.90;;;;;;5054941;28;20197;-77
2021/01/04 02:11:28;;;;;;;7.83;4.83;;;4.30;99.90;;;;;;5016703;28;20238;-76
2021/01/04 02:14:04;;;;;;;8.23;4.80;;;4.10;99.90;;;;;;5025046;28;20247;-76
2021/01/04 02:16:40;;;;;;;8.47;4.93;;;4.10;99.90;;;;;;5018155;28;20209;-76
2021/01/04 02:19:14;;;;;;;8.57;5.40;;;4.10;99.90;;;;;;5019180;28;20211;-76
2021/01/04 02:21:53;;;;;;;8.50;4.93;;;4.20;99.90;;;;;;5048747;28;20254;-76
2021/01/04 02:24:24;;;;;;;6.67;4.93;;;4.20;99.90;;;;;;5017167;28;20205;-75
2021/01/04 02:27:14;;;;;;;7.47;4.40;;;4.10;99.90;;;;;;5021021;28;20584;-75
2021/01/04 02:29:41;;;;;;;9.03;5.40;;;4.10;99.90;;;;;;5021630;28;20258;-75
2021/01/04 02:32:09;;;;;;;6.57;4.17;;;4.20;52.10;;;;;;5019539;28;20255;-75
2021/01/04 02:34:43;;;;;;;4.70;3.60;;;4.10;1.00;;;;;;5015540;28;20219;-75
2021/01/04 02:37:10;;;;;;;5.63;3.73;;;4.10;1.00;;;;;;5021704;28;20255;-76
2021/01/04 02:39:53;;;;;;;6.30;3.90;;;4.10;1.00;;;;;;5018802;28;20279;-75
2021/01/04 02:42:29;;;;;;;5.03;3.30;;;4.10;1.00;;;;;;5019651;28;20287;-75
2021/01/04 02:44:57;;;;;;;8.00;4.10;;;4.10;1.00;;;;;;5020459;28;20206;-75
2021/01/04 02:47:42;;;;;;;5.33;3.40;;;4.10;1.00;;;;;;5033284;28;20228;-75
2021/01/04 02:50:36;;;;;;;4.30;3.37;;;4.10;1.00;;;;;;5011839;28;20579;-76
2021/01/04 02:53:40;;;;;;;5.60;3.77;;;4.00;1.00;;;;;;5020796;28;20346;-75
2021/01/04 02:56:37;;;;;;;4.97;3.33;;;4.10;1.00;;;;;;5022060;28;20354;-75
2021/01/04 02:59:27;;;;;;;8.20;4.13;;;4.20;1.00;;;;;;5020688;28;20237;-75
2021/01/04 03:01:56;;;;;;;5.33;3.70;;;4.30;1.00;;;;;;5019120;28;20307;-75
2021/01/04 03:04:24;;;;;;;5.67;3.63;;;4.30;1.00;;;;;;5032415;28;20271;-75
2021/01/04 03:07:00;;;;;;;5.87;3.57;;;4.20;1.00;;;;;;5021534;28;20209;-76
2021/01/04 03:09:31;;;;;;;5.17;3.53;;;4.20;1.00;;;;;;5019646;28;20224;-75
2021/01/04 03:12:00;;;;;;;4.60;3.47;;;4.20;1.00;;;;;;5036495;28;20205;-76
2021/01/04 03:14:49;;;;;;;5.90;3.90;;;3.90;1.00;;;;;;5048211;28;20205;-75
2021/01/04 03:17:41;;;;;;;5.80;3.63;;;4.00;1.00;;;;;;5046756;28;20228;-76
2021/01/04 03:20:14;;;;;;;4.47;3.33;;;4.00;1.00;;;;;;5017760;28;20216;-75
2021/01/04 03:22:42;;;;;;;7.20;4.23;;;4.10;1.00;;;;;;5022245;28;20515;-75
2021/01/04 03:25:31;;;;;;;5.43;3.50;;;4.10;1.00;;;;;;5018614;28;20297;-75
2021/01/04 03:27:59;;;;;;;4.17;2.77;;;3.90;1.00;;;;;;5017158;28;20618;-77
2021/01/04 03:30:28;;;;;;;4.20;3.20;;;3.70;1.00;;;;;;5032571;28;20297;-75
2021/01/04 03:32:56;;;;;;;4.17;2.80;;;3.80;1.00;;;;;;5031157;28;20233;-74
2021/01/04 03:35:22;;;;;;;2.70;2.13;;;3.80;1.00;;;;;;5019358;28;20205;-77
2021/01/04 03:37:49;;;;;;;4.80;3.10;;;3.60;1.00;;;;;;5034383;28;20206;-75
2021/01/04 03:40:16;;;;;;;5.00;2.67;;;3.70;1.00;;;;;;5015262;28;20209;-76
2021/01/04 03:42:42;;;;;;;3.90;2.50;;;3.70;1.00;;;;;;5015660;28;20198;-76
2021/01/04 03:45:09;;;;;;;2.57;2.13;;;3.80;1.00;;;;;;5004336;28;20293;-77
2021/01/04 03:47:36;;;;;;;4.23;3.20;;;3.80;1.00;;;;;;5031970;28;20205;-75
2021/01/04 03:50:06;;;;;;;3.50;2.63;;;3.90;1.00;;;;;;5005458;28;20603;-74
2021/01/04 03:52:32;;;;;;;3.70;2.50;;;3.80;1.00;;;;;;5016253;28;20572;-75
2021/01/04 03:54:58;;;;;;;3.07;2.40;;;3.80;1.00;;;;;;5017738;28;20202;-76
2021/01/04 03:57:25;;;;;;;3.47;2.40;;;3.80;1.00;;;;;;5004510;28;20201;-75
2021/01/04 03:59:51;;;;;;;4.70;2.80;;;3.80;1.00;;;;;;4999357;28;20300;-75
2021/01/04 04:02:19;;;;;;;5.00;2.87;;;3.70;1.00;;;;;;5004993;28;20262;-75
2021/01/04 04:04:46;;;;;;;4.03;2.80;;;3.90;1.00;;;;;;5021479;28;20210;-75
2021/01/04 04:07:12;;;;;;;2.97;2.37;;;3.90;1.00;;;;;;5012619;28;20224;-76
2021/01/04 04:09:39;;;;;;;3.27;2.53;;;3.90;1.00;;;;;;5025296;28;20208;-78
2021/01/04 04:12:06;;;;;;;4.47;2.80;;;4.00;1.00;;;;;;5016995;28;20209;-76
2021/01/04 04:14:32;;;;;;;4.47;3.00;;;3.80;1.00;;;;;;5026586;28;20213;-75
2021/01/04 04:16:59;;;;;;;4.10;2.87;;;3.90;1.00;;;;;;5015620;28;20648;-74
2021/01/04 04:19:26;;;;;;;3.93;2.80;;;3.70;1.00;;;;;;5006974;28;20234;-74
2021/01/04 04:21:53;;;;;;;3.67;2.83;;;3.80;1.00;;;;;;5014386;28;20535;-75
2021/01/04 04:24:20;;;;;;;3.17;2.77;;;3.90;1.00;;;;;;5005784;28;20201;-75
2021/01/04 04:26:47;;;;;;;4.10;3.37;;;3.80;1.00;;;;;;5007559;28;20785;-75
2021/01/04 04:29:13;;;;;;;4.57;3.00;;;3.90;1.00;;;;;;5010403;28;20687;-75
2021/01/04 04:31:44;;;;;;;3.37;2.57;;;3.90;1.00;;;;;;5005219;28;20221;-75
2021/01/04 04:34:12;;;;;;;4.63;3.20;;;3.90;1.00;;;;;;5036128;28;20562;-75
2021/01/04 04:36:42;;;;;;;3.60;2.60;;;3.90;1.00;;;;;;5035165;28;20224;-75
2021/01/04 04:39:11;;;;;;;3.00;2.27;;;3.80;1.00;;;;;;5017887;28;20202;-75
2021/01/04 04:41:43;;;;;;;4.10;2.47;;;4.00;1.00;;;;;;5030163;28;20594;-75
2021/01/04 04:44:47;;;;;;;3.20;2.40;;;4.00;1.00;;;;;;5018576;28;20517;-75
2021/01/04 04:47:49;;;;;;;3.30;2.57;;;3.90;1.00;;;;;;5032350;28;20197;-75
2021/01/04 04:50:47;;;;;;;3.37;2.70;;;3.80;1.00;;;;;;5031815;28;20200;-75
2021/01/04 04:53:52;;;;;;;3.60;2.73;;;3.80;1.00;;;;;;5017965;28;20205;-75
2021/01/04 04:56:46;;;;;;;4.87;2.70;;;3.90;1.00;;;;;;5017614;28;20266;-77
2021/01/04 04:59:46;;;;;;;4.37;2.73;;;3.90;1.00;;;;;;5026000;28;20220;-75
2021/01/04 05:02:37;;;;;;;4.20;2.77;;;3.80;1.00;;;;;;5020245;28;20679;-77
2021/01/04 05:05:39;;;;;;;4.53;2.60;;;3.80;1.00;;;;;;5018956;28;20231;-76
2021/01/04 05:08:14;;;;;;;3.83;2.70;;;3.80;1.00;;;;;;5013285;28;20911;-75
2021/01/04 05:10:44;;;;;;;3.10;2.27;;;3.90;1.00;;;;;;5015455;28;20265;-76
2021/01/04 05:13:32;;;;;;;3.87;2.70;;;3.80;1.00;;;;;;5021227;28;20205;-75
2021/01/04 05:16:12;;;;;;;5.40;2.70;;;3.80;1.00;;;;;;5017384;28;20200;-75
2021/01/04 05:19:07;;;;;;;3.43;2.70;;;3.80;1.00;;;;;;5031184;28;20255;-75
2021/01/04 05:22:03;;;;;;;4.30;2.87;;;4.00;21.90;;;;;;5030952;28;20287;-75
2021/01/04 05:25:07;;;;;;;3.30;2.57;;;4.00;1.00;;;;;;5016906;28;20232;-76
2021/01/04 05:28:01;;;;;;;4.30;2.97;;;3.90;1.00;;;;;;5039571;28;20205;-75
2021/01/04 05:30:41;;;;;;;3.67;2.50;;;3.90;1.00;;;;;;5035136;28;20569;-75
2021/01/04 05:33:42;;;;;;;4.17;3.00;;;3.90;1.00;;;;;;5018926;28;20257;-76
2021/01/04 05:36:34;;;;;;;4.67;3.00;;;3.80;1.00;;;;;;5014133;28;20259;-76
2021/01/04 05:39:03;;;;;;;5.33;3.27;;;3.80;1.00;;;;;;5022725;28;20236;-75
2021/01/04 05:41:51;;;;;;;3.77;2.87;;;3.80;1.00;;;;;;5016363;28;20253;-76
2021/01/04 05:44:36;;;;;;;3.20;2.57;;;3.70;1.00;;;;;;5021268;28;20588;-74
2021/01/04 05:47:22;;;;;;;3.43;2.53;;;3.90;1.00;;;;;;5019229;28;20229;-76
2021/01/04 05:50:17;;;;;;;4.13;2.73;;;3.80;1.00;;;;;;5023343;28;20572;-76
2021/01/04 05:52:45;;;;;;;4.30;3.27;;;3.80;1.00;;;;;;5038970;28;20259;-74
2021/01/04 05:55:15;;;;;;;3.47;3.10;;;3.90;1.00;;;;;;5018791;28;20247;-77
2021/01/04 05:57:50;;;;;;;3.33;2.70;;;4.00;1.00;;;;;;5020392;28;20561;-75
2021/01/04 06:00:28;;;;;;;3.20;2.80;;;3.90;1.00;;;;;;5018164;28;20220;-75
2021/01/04 06:03:14;;;;;;;3.73;2.87;;;3.90;1.00;;;;;;5017690;28;20200;-75
2021/01/04 06:05:41;;;;;;;4.30;2.70;;;3.70;1.00;;;;;;5019965;28;20243;-74
2021/01/04 06:08:28;;;;;;;3.67;2.97;;;3.70;1.00;;;;;;5022633;28;20205;-74
2021/01/04 06:11:05;;;;;;;3.60;2.77;;;3.70;1.00;;;;;;5011715;28;20656;-74
2021/01/04 06:13:45;;;;;;;3.80;2.63;;;3.80;1.00;;;;;;5017424;28;20258;-75
2021/01/04 06:16:25;;;;;;;3.33;2.73;;;3.90;1.00;;;;;;5021464;28;20278;-76
2021/01/04 06:18:54;;;;;;;3.23;2.43;;;3.80;1.00;;;;;;5017869;28;20200;-75
2021/01/04 06:21:43;;;;;;;3.97;2.63;;;3.80;1.00;;;;;;5017463;28;20263;-76
2021/01/04 06:24:16;;;;;;;3.77;2.80;;;3.70;20.50;;;;;;5018938;28;20276;-75
2021/01/04 06:26:49;;;;;;;3.10;2.60;;;3.80;43.10;;;;;;5054771;28;20208;-75
2021/01/04 06:29:16;;;;;;;4.03;2.60;;;3.90;35.80;;;;;;5019161;28;20209;-75
2021/01/04 06:31:50;;;;;;;4.13;3.17;;;4.00;28.70;;;;;;5008587;28;20611;-75
2021/01/04 06:34:23;;;;;;;3.80;2.40;;;3.90;1.00;;;;;;5018626;28;20204;-75
2021/01/04 06:36:54;;;;;;;3.30;2.50;;;3.90;15.30;;;;;;5023644;28;20761;-75
2021/01/04 06:39:30;;;;;;;3.17;2.63;;;3.90;35.90;;;;;;5015725;28;20243;-75
2021/01/04 06:42:18;;;;;;;3.23;2.37;;;3.90;31.10;;;;;;5019545;28;20247;-74
2021/01/04 06:45:00;;;;;;;3.37;2.63;;;3.80;33.40;;;;;;5020571;28;20222;-74
2021/01/04 06:47:52;;;;;;;2.53;2.20;;;3.80;59.30;;;;;;5020025;28;20208;-74
2021/01/04 06:50:44;;;;;;;3.30;2.37;;;3.90;47.90;;;;;;5032420;28;20258;-74
2021/01/04 06:53:27;;;;;;;3.80;2.73;;;4.00;26.10;;;;;;5018116;28;20363;-75
2021/01/04 06:56:08;;;;;;;4.03;2.80;;;4.00;15.70;;;;;;5010840;28;20213;-75
2021/01/04 06:58:56;;;;;;;3.63;2.43;;;3.90;26.10;;;;;;5028947;28;20301;-75
2021/01/04 07:02:08;;;;;;;3.47;2.77;;;4.00;75.60;;;;;;5016855;28;20297;-78
2021/01/04 07:05:12;;;;;;;4.47;2.73;;;4.10;49.80;;;;;;5006748;28;20208;-75
2021/01/04 07:07:55;;;;;;;2.83;2.20;;;4.00;37.50;;;;;;5030196;28;20240;-74
2021/01/04 07:10:44;;;;;;;3.70;2.17;;;3.90;60.40;;;;;;5018258;28;20213;-74
2021/01/04 07:13:25;;;;;;;4.30;2.43;;;3.90;99.90;;;;;;5049944;28;20205;-74
2021/01/04 07:16:16;;;;;;;3.43;2.37;;;4.00;90.30;;;;;;5020520;28;20215;-75
2021/01/04 07:19:04;;;;;;;3.67;2.57;;;4.00;57.60;;;;;;5015145;28;20300;-74
2021/01/04 07:21:46;;;;;;;3.43;2.53;;;4.00;99.90;;;;;;5017521;28;20214;-74
2021/01/04 07:24:24;;;;;;;4.20;3.00;;;4.00;23.20;;;;;;5027206;28;20189;-74
2021/01/04 07:27:03;;;;;;;3.73;2.43;;;3.90;1.00;;;;;;5029672;28;20295;-74
2021/01/04 07:29:44;;;;;;;4.20;2.50;;;4.00;1.00;;;;;;5015747;28;20189;-75
2021/01/04 07:32:45;;;;;;;3.73;2.40;;;4.10;1.00;;;;;;5031830;28;20228;-75
2021/01/04 07:35:30;;;;;;;3.73;2.53;;;4.10;1.00;;;;;;5015284;28;20200;-74
2021/01/04 07:38:27;;;;;;;4.70;2.90;;;4.10;1.00;;;;;;5031556;28;20299;-74
2021/01/04 07:41:18;;;;;;;3.63;2.37;;;4.10;1.00;;;;;;5017127;28;20286;-75
2021/01/04 07:44:32;;;;;;;3.53;2.37;;;4.10;1.00;;;;;;5030299;28;20208;-75
2021/01/04 07:47:17;;;;;;;3.93;2.30;;;4.10;1.00;;;;;;5031137;28;20593;-75
2021/01/04 07:50:12;;;;;;;3.07;2.50;;;4.10;1.00;;;;;;5015788;28;20635;-77
2021/01/04 07:53:11;;;;;;;4.10;2.27;;;4.10;1.00;;;;;;5015693;28;20200;-76
2021/01/04 07:55:55;;;;;;;2.43;2.13;;;4.00;1.00;;;;;;5021045;28;20208;-74
2021/01/04 07:58:56;;;;;;;2.87;2.00;;;4.10;1.00;;;;;;5022035;28;20197;-76
2021/01/04 08:01:51;;;;;;;2.70;1.83;;;4.00;1.00;;;;;;5054913;28;20250;-75
2021/01/04 08:04:43;;;;;;;3.77;2.50;;;4.00;1.00;;;;;;5021488;28;20208;-73
2021/01/04 08:07:48;;;;;;;3.13;2.43;;;4.00;1.00;;;;;;5036085;28;20203;-72
2021/01/04 08:10:33;;;;;;;2.20;1.90;;;4.00;1.00;;;;;;5019978;28;20227;-73
2021/01/04 08:13:22;;;;;;;3.53;2.30;;;4.00;1.00;;;;;;5022722;28;20657;-72
2021/01/04 08:15:59;;;;;;;6.03;2.17;;;4.10;1.00;;;;;;5037219;28;21741;-73
2021/01/04 08:18:26;;;;;;;4.00;2.27;;;4.10;1.00;;;;;;5021155;28;20215;-73
2021/01/04 08:20:59;;;;;;;3.57;2.43;;;4.10;1.00;;;;;;5007912;28;20370;-73
2021/01/04 08:24:03;;;;;;;3.13;2.23;;;4.20;1.00;;;;;;5019432;28;20263;-76
2021/01/04 08:26:47;;;;;;;4.30;2.90;;;4.10;1.00;;;;;;5010344;28;20661;-75
2021/01/04 08:29:51;;;;;;;2.43;2.20;;;4.00;1.00;;;;;;5022268;28;20339;-74
2021/01/04 08:32:42;;;;;;;4.07;2.87;;;4.00;1.00;;;;;;5024466;28;20331;-74
2021/01/04 08:35:31;;;;;;;3.40;2.43;;;4.20;1.00;;;;;;5017614;28;20202;-72
2021/01/04 08:38:21;;;;;;;4.57;2.37;;;4.20;1.00;;;;;;5016344;28;20354;-74
2021/01/04 08:40:51;;;;;;;4.13;2.33;;;4.20;1.00;;;;;;5018443;28;20755;-73
2021/01/04 08:43:17;;;;;;;3.67;2.30;;;4.20;1.00;;;;;;5015800;28;20220;-73
2021/01/04 08:45:45;;;;;;;3.70;2.13;;;4.10;1.00;;;;;;5016496;28;20231;-76
2021/01/04 08:48:34;;;;;;;3.10;2.10;;;4.20;1.00;;;;;;5008811;28;20272;-73
2021/01/04 08:51:06;;;;;;;5.43;2.00;;;4.20;1.00;;;;;;5017492;28;20283;-73
2021/01/04 08:53:32;;;;;;;3.53;2.30;;;4.20;1.00;;;;;;5052293;28;20288;-73
2021/01/04 08:56:14;;;;;;;3.30;2.30;;;4.10;1.00;;;;;;5017765;28;20205;-74
2021/01/04 08:58:45;;;;;;;3.77;2.50;;;4.20;1.00;;;;;;5015737;28;20228;-73
2021/01/04 09:01:27;;;;;;;2.57;2.30;;;4.10;1.00;;;;;;5016242;28;21207;-74
2021/01/04 09:04:23;;;;;;;3.07;2.20;;;4.20;1.00;;;;;;5018372;28;20797;-72
2021/01/04 09:07:04;;;;;;;3.33;2.23;;;4.20;1.00;;;;;;5021294;28;20281;-73
2021/01/04 09:09:34;;;;;;;2.40;1.97;;;4.30;1.00;;;;;;5020778;28;20220;-74
2021/01/04 09:12:05;;;;;;;2.60;1.87;;;4.20;1.00;;;;;;5020549;28;22115;-73
2021/01/04 09:14:45;;;;;;;3.10;2.10;;;4.20;1.00;;;;;;5036245;28;20244;-74
2021/01/04 09:17:33;;;;;;;5.20;2.60;;;4.20;1.00;;;;;;5019091;28;20639;-73
2021/01/04 09:20:25;;;;;;;2.67;1.93;;;4.20;1.00;;;;;;5012799;28;20218;-74
2021/01/04 09:23:19;;;;;;;2.57;1.90;;;4.20;1.00;;;;;;5007987;28;20267;-73
2021/01/04 09:25:58;;;;;;;3.17;2.40;;;4.20;1.00;;;;;;5014103;28;20307;-73
2021/01/04 09:28:25;;;;;;;4.07;2.47;;;4.20;1.00;;;;;;5048586;28;20835;-73
2021/01/04 09:30:52;;;;;;;2.80;1.90;;;4.30;1.00;;;;;;5044410;28;20305;-72
2021/01/04 09:33:21;;;;;;;2.87;1.87;;;4.30;1.00;;;;;;5012471;28;20339;-74
2021/01/04 09:35:48;;;;;;;4.27;2.43;;;4.20;1.00;;;;;;5018368;28;20205;-71
2021/01/04 09:38:18;;;;;;;2.90;2.20;;;4.20;1.00;;;;;;5043754;28;20351;-71
2021/01/04 09:40:49;;;;;;;4.40;2.37;;;4.20;1.00;;;;;;5028836;28;20225;-75
2021/01/04 09:43:21;;;;;;;4.63;2.03;;;4.30;1.00;;;;;;5019243;28;20237;-74
2021/01/04 09:45:48;;;;;;;2.93;2.10;;;4.30;1.00;;;;;;5013046;28;20654;-73
2021/01/04 09:48:28;;;;;;;5.33;2.50;;;4.30;1.00;;;;;;5010217;28;21623;-75
2021/01/04 09:51:00;;;;;;;3.70;2.03;;;4.20;1.00;;;;;;5028588;28;20209;-75
2021/01/04 09:53:32;;;;;;;3.30;2.30;;;4.40;1.00;;;;;;5022970;28;20602;-74
2021/01/04 09:56:04;;;;;;;3.40;2.40;;;4.40;1.00;;;;;;5014052;28;20822;-74
2021/01/04 09:58:31;;;;;;;2.77;2.03;;;4.50;1.00;;;;;;5046620;28;20249;-74
2021/01/04 10:01:18;;;;;;;3.47;2.20;;;4.40;1.00;;;;;;5014336;28;20794;-74
2021/01/04 10:03:54;;;;;;;4.03;2.67;;;4.50;1.00;;;;;;5014353;28;20220;-74
2021/01/04 10:06:23;;;;;;;3.80;2.13;;;4.50;1.00;;;;;;5016982;28;20221;-74
2021/01/04 10:08:50;;;;;;;4.10;2.03;;;4.50;1.00;;;;;;5017689;28;21111;-73
2021/01/04 10:11:20;;;;;;;3.07;2.07;;;4.50;1.00;;;;;;5025589;28;20549;-74
2021/01/04 10:13:47;;;;;;;5.27;3.00;;;4.50;1.00;;;;;;5018293;28;20614;-74
2021/01/04 10:16:23;;;;;;;4.60;2.33;;;4.50;1.00;;;;;;5011229;28;20357;-74
2021/01/04 10:19:11;;;;;;;4.17;2.63;;;4.50;1.00;;;;;;5013486;28;20232;-74
2021/01/04 10:21:44;;;;;;;3.43;2.20;;;4.50;1.00;;;;;;5008499;28;20646;-75
2021/01/04 10:24:19;;;;;;;3.33;2.50;;;4.60;1.00;;;;;;5015859;28;20232;-76
2021/01/04 10:26:55;;;;;;;3.57;2.27;;;4.60;1.00;;;;;;5023416;28;20290;-75
2021/01/04 10:29:25;;;;;;;4.73;2.47;;;4.50;1.00;;;;;;5014583;28;20207;-74
2021/01/04 10:32:12;;;;;;;3.80;2.57;;;4.40;1.00;;;;;;5018644;28;20236;-75
2021/01/04 10:34:45;;;;;;;3.10;2.17;;;4.50;1.00;;;;;;5010731;28;20965;-75
2021/01/04 10:37:53;;;;;;;3.30;2.07;;;4.40;1.00;;;;;;5031000;28;20203;-74
2021/01/04 10:40:23;;;;;;;4.83;2.70;;;4.50;1.00;;;;;;5014792;28;20307;-74
2021/01/04 10:43:01;;;;;;;3.17;2.27;;;4.60;1.00;;;;;;5016588;28;20305;-75
2021/01/04 10:45:40;;;;;;;3.43;2.50;;;4.70;1.00;;;;;;5027785;28;20217;-75
2021/01/04 10:48:22;;;;;;;3.43;2.27;;;4.70;1.00;;;;;;5030187;28;20204;-75
2021/01/04 10:50:51;;;;;;;3.60;2.40;;;4.70;1.00;;;;;;5015353;28;20204;-74
2021/01/04 10:53:32;;;;;;;3.10;2.40;;;4.80;1.00;;;;;;5045722;28;20239;-74
2021/01/04 10:56:01;;;;;;;4.60;2.03;;;4.80;1.00;;;;;;5017985;28;20268;-74
2021/01/04 10:58:35;;;;;;;3.17;2.07;;;4.60;1.00;;;;;;5023003;28;20232;-74
2021/01/04 11:01:16;;;;;;;2.07;1.43;;;4.50;1.00;;;;;;5050344;28;20277;-74
2021/01/04 11:04:09;;;;;;;3.60;2.13;;;4.50;1.00;;;;;;5013605;28;21042;-73
2021/01/04 11:06:38;;;;;;;2.67;1.60;;;4.60;1.00;;;;;;5012983;28;20201;-73
2021/01/04 11:09:20;;;;;;;4.57;2.57;;;4.60;1.00;;;;;;5006476;28;20597;-74
2021/01/04 11:11:51;;;;;;;3.43;1.83;;;4.60;1.00;;;;;;5014017;28;20213;-74
2021/01/04 11:14:23;;;;;;;3.20;2.50;;;4.40;1.00;;;;;;4996117;28;20290;-73
2021/01/04 11:17:32;;;;;;;2.87;2.00;;;4.40;1.00;;;;;;5009378;28;20213;-73
2021/01/04 11:20:15;;;;;;;3.10;2.37;;;4.40;1.00;;;;;;5015354;28;20292;-74
2021/01/04 11:22:42;;;;;;;4.73;2.90;;;4.50;1.00;;;;;;5011519;28;20223;-74
2021/01/04 11:25:11;;;;;;;3.60;2.67;;;4.50;1.00;;;;;;5013271;28;20237;-74
2021/01/04 11:27:37;;;;;;;3.40;2.37;;;4.30;1.00;;;;;;5016034;28;20667;-74
2021/01/04 11:30:05;;;;;;;3.07;2.40;;;4.40;1.00;;;;;;5011299;28;20271;-73
2021/01/04 11:32:31;;;;;;;4.23;2.70;;;4.50;1.00;;;;;;5016487;28;20267;-74
2021/01/04 11:35:00;;;;;;;3.60;2.33;;;4.60;1.00;;;;;;5012605;28;20196;-74
2021/01/04 11:37:28;;;;;;;2.90;2.17;;;4.70;1.00;;;;;;5031244;28;20217;-74
2021/01/04 11:39:54;;;;;;;4.37;2.63;;;4.70;1.00;;;;;;5017853;28;20900;-73
2021/01/04 11:42:21;;;;;;;4.20;2.93;;;4.50;1.00;;;;;;5022421;28;20291;-74
2021/01/04 11:44:47;;;;;;;4.47;2.70;;;4.50;1.00;;;;;;5015017;28;20251;-74
2021/01/04 11:47:16;;;;;;;3.67;2.60;;;4.50;1.00;;;;;;5017618;28;20209;-74
2021/01/04 11:49:43;;;;;;;5.93;2.80;;;4.50;1.00;;;;;;5020658;28;20314;-74
2021/01/04 11:52:10;;;;;;;5.27;3.37;;;4.70;55.30;;;;;;5003310;28;20224;-74
2021/01/04 11:54:43;;;;;;;5.03;3.07;;;4.80;32.80;;;;;;5030534;28;20579;-73
2021/01/04 11:57:10;;;;;;;6.27;2.93;;;5.00;4.10;;;;;;5047634;28;20224;-74
2021/01/04 11:59:36;;;;;;;4.53;2.87;;;4.90;1.00;;;;;;5016978;28;20201;-74
2021/01/04 12:02:03;;;;;;;4.77;3.20;;;5.00;1.00;;;;;;5017824;28;20249;-73
2021/01/04 12:04:30;;;;;;;3.90;2.63;;;5.10;1.00;;;;;;5027688;28;20254;-75
2021/01/04 12:06:56;;;;;;;4.30;3.47;;;5.00;1.00;;;;;;5019339;28;21285;-74
2021/01/04 12:09:22;;;;;;;4.17;3.23;;;5.00;1.00;;;;;;5001898;28;20353;-73
2021/01/04 12:11:51;;;;;;;7.07;4.53;;;5.00;1.00;;;;;;5027919;28;20220;-73
2021/01/04 12:14:17;;;;;;;5.57;3.60;;;5.00;1.00;;;;;;5017032;28;20234;-73
2021/01/04 12:16:44;;;;;;;5.07;3.03;;;4.90;1.00;;;;;;5050564;28;20225;-73
2021/01/04 12:19:11;;;;;;;5.30;3.80;;;5.00;1.00;;;;;;5014452;28;20209;-73
2021/01/04 12:21:38;;;;;;;6.03;3.40;;;5.00;1.00;;;;;;5000972;28;20234;-74
2021/01/04 12:24:05;;;;;;;6.40;3.93;;;5.00;1.00;;;;;;5012352;28;20288;-73
2021/01/04 12:26:32;;;;;;;5.97;4.30;;;4.80;53.70;;;;;;5014764;28;20568;-73
2021/01/04 12:28:58;;;;;;;5.07;3.53;;;4.60;85.10;;;;;;5011508;28;20264;-74
2021/01/04 12:31:24;;;;;;;6.37;4.00;;;4.60;99.90;;;;;;5018341;28;20210;-74
2021/01/04 12:33:51;;;;;;;7.57;3.80;;;4.70;99.90;;;;;;5017316;28;20240;-73
2021/01/04 12:36:24;;;;;;;5.07;3.53;;;4.70;99.90;;;;;;5009270;28;20213;-73
2021/01/04 12:38:51;;;;;;;6.03;3.73;;;4.80;99.90;;;;;;5023652;28;20314;-72
2021/01/04 12:41:18;;;;;;;4.23;3.17;;;4.60;99.90;;;;;;5014968;28;20299;-74
2021/01/04 12:43:45;;;;;;;4.97;3.13;;;4.60;99.90;;;;;;5009377;28;20286;-74
2021/01/04 12:46:13;;;;;;;4.67;2.80;;;4.50;99.90;;;;;;5025549;28;20338;-74
2021/01/04 12:48:40;;;;;;;5.67;2.80;;;4.60;99.90;;;;;;5025597;28;20206;-74
2021/01/04 12:51:08;;;;;;;5.83;3.07;;;4.50;99.90;;;;;;5007982;28;20501;-73
2021/01/04 12:53:35;;;;;;;4.40;3.07;;;4.50;99.90;;;;;;5022283;28;20256;-75
2021/01/04 12:56:04;;;;;;;3.67;3.07;;;4.70;99.90;;;;;;5007817;28;20265;-73
2021/01/04 12:58:30;;;;;;;7.03;3.20;;;4.60;99.90;;;;;;5050213;28;20229;-76
2021/01/04 13:00:56;;;;;;;4.00;3.20;;;4.60;99.90;;;;;;5005830;28;20217;-75
2021/01/04 13:03:35;;;;;;;5.50;2.83;;;4.60;99.90;;;;;;5011851;28;20241;-74
2021/01/04 13:06:02;;;;;;;4.47;2.77;;;4.50;99.90;;;;;;5015157;28;20296;-74
2021/01/04 13:08:29;;;;;;;3.90;2.60;;;4.60;99.90;;;;;;5000636;28;20292;-74
2021/01/04 13:10:56;;;;;;;5.20;2.80;;;4.70;99.90;;;;;;5012273;28;20606;-75
2021/01/04 13:13:22;;;;;;;4.47;2.70;;;4.60;99.90;;;;;;5026222;28;21892;-75
2021/01/04 13:15:49;;;;;;;4.20;3.20;;;4.50;99.90;;;;;;5044455;28;20201;-74
2021/01/04 13:18:16;;;;;;;5.30;3.47;;;4.50;99.90;;;;;;5012466;28;20227;-74
2021/01/04 13:20:42;;;;;;;7.83;3.50;;;4.60;99.90;;;;;;5013852;28;21187;-73
2021/01/04 13:23:08;;;;;;;5.43;3.37;;;4.50;99.90;;;;;;5030220;28;20534;-74
2021/01/04 13:25:35;;;;;;;5.33;3.43;;;4.50;90.90;;;;;;5010917;28;20200;-75
2021/01/04 13:28:03;;;;;;;4.20;3.20;;;4.50;96.00;;;;;;5030567;28;20633;-73
2021/01/04 13:30:30;;;;;;;4.17;3.10;;;4.50;43.50;;;;;;5017180;28;20224;-74
2021/01/04 13:32:56;;;;;;;5.67;3.40;;;4.40;23.30;;;;;;4998724;28;20265;-74
2021/01/04 13:35:23;;;;;;;4.37;2.60;;;4.60;32.40;;;;;;4997017;28;20307;-75
2021/01/04 13:37:49;;;;;;;5.87;3.20;;;4.50;1.00;;;;;;5008649;28;20230;-73
2021/01/04 13:40:16;;;;;;;7.40;2.87;;;4.50;1.00;;;;;;4998043;28;20546;-73
2021/01/04 13:42:57;;;;;;;4.33;2.80;;;4.60;1.00;;;;;;5000764;28;20209;-73
2021/01/04 13:45:24;;;;;;;4.10;2.73;;;4.70;1.00;;;;;;5012507;28;20223;-74
2021/01/04 13:47:51;;;;;;;7.73;3.40;;;4.60;1.00;;;;;;5011309;28;20878;-74
2021/01/04 13:50:18;;;;;;;5.57;3.00;;;4.60;1.00;;;;;;5012091;28;20278;-74
2021/01/04 13:52:44;;;;;;;5.37;2.70;;;4.60;1.00;;;;;;5013854;28;20208;-73
2021/01/04 13:55:11;;;;;;;4.57;3.23;;;4.50;1.00;;;;;;5014735;28;20205;-73
2021/01/04 13:57:39;;;;;;;2.93;2.40;;;4.50;1.00;;;;;;5008281;28;20369;-73
2021/01/04 14:00:06;;;;;;;3.80;2.97;;;4.40;1.00;;;;;;5008585;28;20243;-74